createdAt,value
2022-12-29T00:01:37.481Z,67.67
2022-12-29T00:07:40.586Z,69.67
2022-12-29T00:14:01.808Z,70.67
2022-12-29T00:20:24.169Z,64.00
2022-12-29T00:26:45.007Z,69.67
2022-12-29T00:33:06.776Z,70.67
2022-12-29T00:39:35.160Z,69.00
2022-12-29T00:45:42.679Z,66.00
2022-12-29T00:51:44.941Z,60.67
2022-12-29T00:57:47.485Z,73.67
2022-12-29T01:03:49.631Z,71.67
2022-12-29T01:10:15.814Z,72.33
2022-12-29T01:16:17.940Z,74.00
2022-12-29T01:22:20.986Z,70.00
2022-12-29T01:28:26.372Z,71.33
2022-12-29T01:34:28.589Z,75.33
2022-12-29T01:40:31.229Z,70.67
2022-12-29T01:46:42.729Z,78.00
2022-12-29T01:52:53.823Z,79.00
2022-12-29T01:59:03.829Z,78.00
2022-12-29T02:05:12.654Z,80.67
2022-12-29T02:11:15.354Z,83.33
2022-12-29T02:17:29.396Z,84.00
2022-12-29T02:23:56.128Z,71.00
2022-12-29T02:30:31.622Z,75.00
2022-12-29T02:36:48.769Z,87.00
2022-12-29T02:43:04.286Z,92.33
2022-12-29T02:49:16.331Z,90.33
2022-12-29T02:55:20.008Z,91.00
2022-12-29T03:01:41.078Z,87.33
2022-12-29T03:07:57.914Z,84.33
2022-12-29T03:14:32.099Z,87.00
2022-12-29T03:20:50.794Z,86.67
2022-12-29T03:26:55.579Z,78.00
2022-12-29T03:33:03.679Z,84.33
2022-12-29T03:39:14.821Z,79.00
2022-12-29T03:45:19.804Z,82.00
2022-12-29T03:51:23.276Z,82.00
2022-12-29T03:57:27.596Z,79.67
2022-12-29T04:03:35.226Z,79.67
2022-12-29T04:09:37.960Z,82.67
2022-12-29T04:15:40.967Z,81.00
2022-12-29T04:21:43.471Z,77.33
2022-12-29T04:27:45.879Z,84.00
2022-12-29T04:34:10.161Z,69.00
2022-12-29T04:40:20.970Z,82.67
2022-12-29T04:46:23.668Z,72.67
2022-12-29T04:52:48.056Z,78.33
2022-12-29T04:58:50.339Z,75.33
2022-12-29T05:04:53.455Z,78.00
2022-12-29T05:10:56.825Z,82.67
2022-12-29T06:08:19.974Z,79.00
2022-12-29T06:14:23.987Z,90.00
2022-12-29T06:20:26.391Z,80.67
2022-12-29T06:26:32.273Z,81.00
2022-12-29T06:32:35.099Z,73.67
2022-12-29T06:38:40.689Z,75.67
2022-12-29T06:44:44.487Z,85.67
2022-12-29T06:50:46.885Z,83.33
2022-12-29T06:56:49.851Z,76.00
2022-12-29T07:02:52.654Z,77.67
2022-12-29T07:08:57.298Z,68.67
2022-12-29T07:15:01.130Z,79.67
2022-12-29T07:21:08.149Z,75.33
2022-12-29T07:27:10.708Z,71.67
2022-12-29T07:33:12.805Z,76.33
2022-12-29T07:39:14.902Z,71.67
2022-12-29T07:45:17.327Z,70.67
2022-12-29T07:51:24.413Z,68.67
2022-12-29T07:57:31.846Z,66.33
2022-12-29T08:03:34.550Z,69.33
2022-12-29T08:09:46.721Z,68.50
2022-12-29T08:15:54.774Z,69.25
2022-12-29T08:21:58.228Z,56.75
2022-12-29T08:28:05.455Z,66.00
2022-12-29T08:34:07.589Z,57.50
2022-12-29T08:40:12.965Z,56.00
2022-12-29T08:46:18.522Z,43.75
2022-12-29T08:52:20.649Z,34.50
2022-12-29T08:58:22.828Z,37.75
2022-12-29T09:04:26.693Z,31.50
2022-12-29T09:10:29.127Z,33.00
2022-12-29T09:16:32.354Z,29.25
2022-12-29T09:22:37.656Z,31.25
2022-12-29T09:28:41.431Z,36.00
2022-12-29T09:34:46.233Z,26.75
2022-12-29T09:41:06.569Z,23.50
2022-12-29T09:47:14.522Z,23.25
2022-12-29T09:53:42.290Z,21.00
2022-12-29T09:59:46.985Z,34.00
2022-12-29T10:06:01.344Z,33.00
2022-12-29T10:12:25.450Z,34.50
2022-12-29T10:19:04.770Z,24.50
2022-12-29T10:25:18.926Z,21.75
2022-12-29T10:31:24.704Z,25.25
2022-12-29T10:37:40.332Z,27.75
2022-12-29T10:43:52.569Z,23.50
2022-12-29T10:49:59.608Z,29.75
2022-12-29T10:56:03.334Z,31.50
2022-12-29T11:02:08.610Z,22.00
2022-12-29T11:08:23.915Z,27.75
2022-12-29T11:15:15.377Z,24.67
2022-12-29T11:28:41.778Z,27.75
2022-12-29T11:35:07.536Z,54.75
2022-12-29T11:41:15.881Z,33.00
2022-12-29T11:47:31.780Z,30.25
2022-12-29T11:53:51.479Z,21.00
2022-12-29T12:00:00.432Z,26.50
2022-12-29T12:06:03.808Z,26.50
2022-12-29T12:12:09.882Z,28.50
2022-12-29T12:18:22.800Z,34.75
2022-12-29T12:25:06.635Z,31.75
2022-12-29T12:31:20.278Z,31.75
2022-12-29T12:37:37.537Z,30.25
2022-12-29T12:43:49.660Z,38.00
2022-12-29T12:50:33.236Z,32.00
2022-12-29T12:56:45.243Z,29.50
2022-12-29T13:03:18.656Z,36.00
2022-12-29T13:09:46.708Z,34.50
2022-12-29T13:16:16.245Z,33.50
2022-12-29T13:23:06.386Z,29.25
2022-12-29T13:29:47.260Z,31.50
2022-12-29T13:36:18.240Z,24.00
2022-12-29T13:42:20.927Z,28.75
2022-12-29T13:48:36.428Z,21.50
2022-12-29T13:54:48.287Z,20.50
2022-12-29T14:00:57.347Z,23.75
2022-12-29T14:07:08.246Z,26.00
2022-12-29T14:13:18.441Z,35.50
2022-12-29T14:19:29.927Z,32.00
2022-12-29T14:26:10.337Z,37.00
2022-12-29T14:32:34.208Z,29.00
2022-12-29T14:38:47.609Z,22.50
2022-12-29T14:45:13.966Z,28.50
2022-12-29T14:51:34.318Z,29.25
2022-12-29T14:57:41.705Z,29.25
2022-12-29T15:03:52.693Z,36.75
2022-12-29T15:10:07.434Z,41.75
2022-12-29T15:16:38.062Z,41.75
2022-12-29T15:22:45.371Z,58.50
2022-12-29T15:28:49.596Z,60.00
2022-12-29T15:34:59.299Z,61.00
2022-12-29T15:41:06.975Z,64.25
2022-12-29T15:47:19.877Z,63.50
2022-12-29T15:53:33.395Z,64.00
2022-12-29T15:59:36.613Z,70.25
2022-12-29T16:05:42.284Z,75.50
2022-12-29T16:11:57.989Z,58.00
2022-12-29T16:18:02.740Z,66.75
2022-12-29T16:24:16.228Z,64.50
2022-12-29T16:30:26.422Z,69.25
2022-12-29T16:36:37.632Z,60.50
2022-12-29T16:42:39.978Z,59.25
2022-12-29T16:48:52.274Z,70.75
2022-12-29T16:55:01.128Z,64.25
2022-12-29T17:01:14.689Z,67.00
2022-12-29T17:07:27.575Z,67.75
2022-12-29T17:13:31.336Z,72.00
2022-12-29T17:19:40.356Z,70.00
2022-12-29T17:25:43.185Z,79.67
2022-12-29T17:31:45.385Z,73.50
2022-12-29T17:37:54.036Z,75.25
2022-12-29T17:43:58.871Z,78.75
2022-12-29T17:50:01.650Z,74.75
2022-12-29T17:56:07.046Z,80.50
2022-12-29T18:02:30.434Z,76.50
2022-12-29T18:08:35.559Z,74.75
2022-12-29T18:14:38.234Z,80.75
2022-12-29T18:20:43.280Z,86.50
2022-12-29T18:26:45.824Z,75.25
2022-12-29T18:32:48.955Z,75.00
2022-12-29T18:38:55.037Z,82.25
2022-12-29T18:44:57.163Z,75.00
2022-12-29T18:51:00.335Z,77.33
2022-12-29T18:57:03.989Z,69.00
2022-12-29T19:03:07.771Z,72.50
2022-12-29T19:09:09.987Z,74.50
2022-12-29T19:15:24.133Z,78.33
2022-12-29T19:21:27.182Z,72.25
2022-12-29T19:27:29.328Z,75.00
2022-12-29T19:33:31.782Z,79.00
2022-12-29T19:39:34.284Z,76.00
2022-12-29T19:45:40.599Z,80.50
2022-12-29T19:51:43.173Z,76.00
2022-12-29T19:57:46.087Z,71.75
2022-12-29T20:03:49.667Z,64.75
2022-12-29T20:09:52.259Z,68.25
2022-12-29T20:15:58.965Z,66.50
2022-12-29T20:22:02.482Z,70.50
2022-12-29T20:28:04.599Z,66.75
2022-12-29T20:34:10.103Z,73.75
2022-12-29T20:40:13.210Z,79.00
2022-12-29T20:46:21.300Z,77.25
2022-12-29T20:52:25.192Z,77.00
2022-12-29T20:58:32.985Z,79.25
2022-12-29T21:05:05.420Z,77.33
2022-12-29T21:11:00.282Z,73.67
2022-12-29T21:17:03.966Z,81.50
2022-12-29T21:23:06.833Z,83.00
2022-12-29T21:29:09.289Z,80.00
2022-12-29T21:35:11.858Z,76.75
2022-12-29T21:41:17.241Z,79.33
2022-12-29T21:47:19.403Z,73.50
2022-12-29T21:53:21.591Z,74.75
2022-12-29T21:59:42.284Z,73.75
2022-12-29T22:06:03.528Z,75.00
2022-12-29T22:12:26.159Z,83.00
2022-12-29T22:18:29.669Z,80.25
2022-12-29T22:24:33.626Z,78.25
2022-12-29T22:30:36.385Z,79.50
2022-12-29T22:36:38.559Z,78.50
2022-12-29T22:42:46.511Z,77.33
2022-12-29T22:48:48.623Z,66.67
2022-12-29T22:54:52.251Z,78.00
2022-12-29T23:00:54.479Z,82.67
2022-12-29T23:06:56.762Z,80.67
2022-12-29T23:12:58.953Z,76.67
2022-12-29T23:19:01.107Z,89.33
2022-12-29T23:25:03.777Z,72.67
2022-12-29T23:31:06.070Z,74.67
2022-12-29T23:37:09.619Z,82.25
2022-12-29T23:43:13.261Z,76.25
2022-12-29T23:49:17.116Z,76.33
2022-12-29T23:55:19.154Z,83.67
